sensor_id;sensor_type;location;lat;lon;timestamp;temperature;humidity
49184;DHT22;35021;49.214;12.270;2022-12-17T00:01:34;18.50;27.40
49184;DHT22;35021;49.214;12.270;2022-12-17T00:04:19;18.50;27.40
49184;DHT22;35021;49.214;12.270;2022-12-17T00:07:05;18.50;27.40
49184;DHT22;35021;49.214;12.270;2022-12-17T00:09:50;18.50;27.40
49184;DHT22;35021;49.214;12.270;2022-12-17T00:12:35;18.50;27.50
49184;DHT22;35021;49.214;12.270;2022-12-17T00:15:23;18.50;27.40
49184;DHT22;35021;49.214;12.270;2022-12-17T00:18:10;18.50;27.40
49184;DHT22;35021;49.214;12.270;2022-12-17T00:20:57;18.60;27.40
49184;DHT22;35021;49.214;12.270;2022-12-17T00:23:43;18.60;27.50
49184;DHT22;35021;49.214;12.270;2022-12-17T00:26:29;18.50;27.40
49184;DHT22;35021;49.214;12.270;2022-12-17T00:29:28;18.60;27.50
49184;DHT22;35021;49.214;12.270;2022-12-17T00:32:14;18.60;27.50
49184;DHT22;35021;49.214;12.270;2022-12-17T00:34:59;18.60;27.50
49184;DHT22;35021;49.214;12.270;2022-12-17T00:37:45;18.60;27.40
49184;DHT22;35021;49.214;12.270;2022-12-17T00:40:31;18.60;27.40
49184;DHT22;35021;49.214;12.270;2022-12-17T00:43:17;18.60;27.40
49184;DHT22;35021;49.214;12.270;2022-12-17T00:46:03;18.60;27.40
49184;DHT22;35021;49.214;12.270;2022-12-17T00:48:48;18.60;27.40
49184;DHT22;35021;49.214;12.270;2022-12-17T00:51:34;18.60;27.40
49184;DHT22;35021;49.214;12.270;2022-12-17T00:54:19;18.60;27.40
49184;DHT22;35021;49.214;12.270;2022-12-17T00:57:04;18.60;27.40
49184;DHT22;35021;49.214;12.270;2022-12-17T00:59:50;18.60;27.40
49184;DHT22;35021;49.214;12.270;2022-12-17T01:02:35;18.60;27.30
49184;DHT22;35021;49.214;12.270;2022-12-17T01:05:22;18.60;27.30
49184;DHT22;35021;49.214;12.270;2022-12-17T01:08:09;18.60;27.30
49184;DHT22;35021;49.214;12.270;2022-12-17T01:11:06;18.60;27.40
49184;DHT22;35021;49.214;12.270;2022-12-17T01:13:52;18.60;27.40
49184;DHT22;35021;49.214;12.270;2022-12-17T01:16:38;18.60;27.40
49184;DHT22;35021;49.214;12.270;2022-12-17T01:19:23;18.60;27.40
49184;DHT22;35021;49.214;12.270;2022-12-17T01:22:09;18.60;27.40
49184;DHT22;35021;49.214;12.270;2022-12-17T01:24:54;18.60;27.40
49184;DHT22;35021;49.214;12.270;2022-12-17T01:27:40;18.60;27.50
49184;DHT22;35021;49.214;12.270;2022-12-17T01:30:25;18.60;27.50
49184;DHT22;35021;49.214;12.270;2022-12-17T01:33:11;18.60;27.50
49184;DHT22;35021;49.214;12.270;2022-12-17T01:35:57;18.60;27.50
49184;DHT22;35021;49.214;12.270;2022-12-17T01:38:42;18.60;27.50
49184;DHT22;35021;49.214;12.270;2022-12-17T01:41:28;18.60;27.60
49184;DHT22;35021;49.214;12.270;2022-12-17T01:47:52;18.60;27.60
49184;DHT22;35021;49.214;12.270;2022-12-17T01:50:47;18.60;27.70
49184;DHT22;35021;49.214;12.270;2022-12-17T01:53:37;18.60;27.60
49184;DHT22;35021;49.214;12.270;2022-12-17T01:56:24;18.60;27.60
49184;DHT22;35021;49.214;12.270;2022-12-17T01:59:11;18.60;27.50
49184;DHT22;35021;49.214;12.270;2022-12-17T02:01:57;18.60;27.50
49184;DHT22;35021;49.214;12.270;2022-12-17T02:04:43;18.60;28.00
49184;DHT22;35021;49.214;12.270;2022-12-17T02:08:19;18.60;27.40
49184;DHT22;35021;49.214;12.270;2022-12-17T02:11:14;18.60;27.40
49184;DHT22;35021;49.214;12.270;2022-12-17T02:14:17;18.60;27.50
49184;DHT22;35021;49.214;12.270;2022-12-17T02:17:05;18.60;27.40
49184;DHT22;35021;49.214;12.270;2022-12-17T02:20:00;18.60;27.40
49184;DHT22;35021;49.214;12.270;2022-12-17T02:23:05;18.60;27.40
49184;DHT22;35021;49.214;12.270;2022-12-17T02:26:03;18.60;27.40
49184;DHT22;35021;49.214;12.270;2022-12-17T02:28:53;18.60;27.40
49184;DHT22;35021;49.214;12.270;2022-12-17T02:31:40;18.60;27.50
49184;DHT22;35021;49.214;12.270;2022-12-17T02:34:27;18.50;27.40
49184;DHT22;35021;49.214;12.270;2022-12-17T02:37:13;18.50;27.40
49184;DHT22;35021;49.214;12.270;2022-12-17T02:39:59;18.50;27.50
49184;DHT22;35021;49.214;12.270;2022-12-17T02:42:46;18.40;27.50
49184;DHT22;35021;49.214;12.270;2022-12-17T02:45:32;18.40;27.50
49184;DHT22;35021;49.214;12.270;2022-12-17T02:48:19;18.40;27.50
49184;DHT22;35021;49.214;12.270;2022-12-17T02:51:04;18.30;27.60
49184;DHT22;35021;49.214;12.270;2022-12-17T02:53:52;18.30;27.50
49184;DHT22;35021;49.214;12.270;2022-12-17T02:56:38;18.30;27.50
49184;DHT22;35021;49.214;12.270;2022-12-17T02:59:23;18.30;27.50
49184;DHT22;35021;49.214;12.270;2022-12-17T03:02:09;18.30;27.60
49184;DHT22;35021;49.214;12.270;2022-12-17T03:04:54;18.30;27.60
49184;DHT22;35021;49.214;12.270;2022-12-17T03:08:00;18.30;27.60
49184;DHT22;35021;49.214;12.270;2022-12-17T03:10:45;18.30;27.50
49184;DHT22;35021;49.214;12.270;2022-12-17T03:13:30;18.30;27.60
49184;DHT22;35021;49.214;12.270;2022-12-17T03:16:17;18.20;27.50
49184;DHT22;35021;49.214;12.270;2022-12-17T03:19:04;18.30;27.60
49184;DHT22;35021;49.214;12.270;2022-12-17T03:21:49;18.30;27.60
49184;DHT22;35021;49.214;12.270;2022-12-17T03:24:34;18.30;27.60
49184;DHT22;35021;49.214;12.270;2022-12-17T03:27:19;18.30;27.60
49184;DHT22;35021;49.214;12.270;2022-12-17T03:30:05;18.30;27.60
49184;DHT22;35021;49.214;12.270;2022-12-17T03:32:51;18.30;27.60
49184;DHT22;35021;49.214;12.270;2022-12-17T03:35:36;18.20;27.50
49184;DHT22;35021;49.214;12.270;2022-12-17T03:38:21;18.20;27.60
49184;DHT22;35021;49.214;12.270;2022-12-17T03:41:07;18.20;27.60
49184;DHT22;35021;49.214;12.270;2022-12-17T03:43:53;18.20;27.70
49184;DHT22;35021;49.214;12.270;2022-12-17T03:46:38;18.20;27.70
49184;DHT22;35021;49.214;12.270;2022-12-17T03:49:23;18.20;27.70
49184;DHT22;35021;49.214;12.270;2022-12-17T03:52:09;18.20;27.70
49184;DHT22;35021;49.214;12.270;2022-12-17T03:54:54;18.20;27.60
49184;DHT22;35021;49.214;12.270;2022-12-17T03:57:39;18.30;27.60
49184;DHT22;35021;49.214;12.270;2022-12-17T04:00:24;18.30;27.60
49184;DHT22;35021;49.214;12.270;2022-12-17T04:03:10;18.40;27.60
49184;DHT22;35021;49.214;12.270;2022-12-17T04:05:55;18.50;27.70
49184;DHT22;35021;49.214;12.270;2022-12-17T04:08:40;18.50;27.60
49184;DHT22;35021;49.214;12.270;2022-12-17T04:11:26;18.60;27.60
49184;DHT22;35021;49.214;12.270;2022-12-17T04:14:11;18.70;28.10
49184;DHT22;35021;49.214;12.270;2022-12-17T04:16:57;18.80;28.10
49184;DHT22;35021;49.214;12.270;2022-12-17T04:19:46;18.80;27.40
49184;DHT22;35021;49.214;12.270;2022-12-17T04:22:31;18.80;27.40
49184;DHT22;35021;49.214;12.270;2022-12-17T04:25:17;18.80;27.30
49184;DHT22;35021;49.214;12.270;2022-12-17T04:28:02;18.80;27.20
49184;DHT22;35021;49.214;12.270;2022-12-17T04:30:47;18.80;27.30
49184;DHT22;35021;49.214;12.270;2022-12-17T04:33:33;18.80;27.20
49184;DHT22;35021;49.214;12.270;2022-12-17T04:36:18;18.80;27.20
49184;DHT22;35021;49.214;12.270;2022-12-17T04:39:04;18.80;27.10
49184;DHT22;35021;49.214;12.270;2022-12-17T04:41:49;18.90;27.10
49184;DHT22;35021;49.214;12.270;2022-12-17T04:44:34;18.90;27.10
49184;DHT22;35021;49.214;12.270;2022-12-17T04:47:20;18.90;27.10
49184;DHT22;35021;49.214;12.270;2022-12-17T04:50:05;19.00;27.70
49184;DHT22;35021;49.214;12.270;2022-12-17T04:53:01;19.00;27.10
49184;DHT22;35021;49.214;12.270;2022-12-17T04:55:47;19.00;27.10
49184;DHT22;35021;49.214;12.270;2022-12-17T04:58:33;19.00;27.10
49184;DHT22;35021;49.214;12.270;2022-12-17T05:01:19;19.00;27.20
49184;DHT22;35021;49.214;12.270;2022-12-17T05:04:05;18.90;27.70
49184;DHT22;35021;49.214;12.270;2022-12-17T05:06:51;18.90;27.20
49184;DHT22;35021;49.214;12.270;2022-12-17T05:09:36;18.90;27.30
49184;DHT22;35021;49.214;12.270;2022-12-17T05:12:21;18.80;27.30
49184;DHT22;35021;49.214;12.270;2022-12-17T05:15:07;18.90;27.40
49184;DHT22;35021;49.214;12.270;2022-12-17T05:17:52;18.80;27.30
49184;DHT22;35021;49.214;12.270;2022-12-17T05:20:38;18.90;27.30
49184;DHT22;35021;49.214;12.270;2022-12-17T05:23:23;18.90;27.20
49184;DHT22;35021;49.214;12.270;2022-12-17T05:26:20;18.90;27.20
49184;DHT22;35021;49.214;12.270;2022-12-17T05:29:07;19.00;27.20
49184;DHT22;35021;49.214;12.270;2022-12-17T05:31:52;19.00;27.20
49184;DHT22;35021;49.214;12.270;2022-12-17T05:34:38;19.00;27.20
49184;DHT22;35021;49.214;12.270;2022-12-17T05:37:23;19.00;27.20
49184;DHT22;35021;49.214;12.270;2022-12-17T05:40:09;19.00;27.20
49184;DHT22;35021;49.214;12.270;2022-12-17T05:43:00;19.00;27.10
49184;DHT22;35021;49.214;12.270;2022-12-17T05:45:46;19.00;27.20
49184;DHT22;35021;49.214;12.270;2022-12-17T05:48:32;19.00;27.30
49184;DHT22;35021;49.214;12.270;2022-12-17T05:51:18;18.90;27.30
49184;DHT22;35021;49.214;12.270;2022-12-17T05:54:05;18.90;27.30
49184;DHT22;35021;49.214;12.270;2022-12-17T05:56:52;19.00;27.30
49184;DHT22;35021;49.214;12.270;2022-12-17T05:59:37;19.00;27.30
49184;DHT22;35021;49.214;12.270;2022-12-17T06:02:23;19.00;27.30
49184;DHT22;35021;49.214;12.270;2022-12-17T06:05:08;19.10;27.30
49184;DHT22;35021;49.214;12.270;2022-12-17T06:08:04;19.10;27.30
49184;DHT22;35021;49.214;12.270;2022-12-17T06:10:50;19.10;27.10
49184;DHT22;35021;49.214;12.270;2022-12-17T06:13:36;19.20;27.10
49184;DHT22;35021;49.214;12.270;2022-12-17T06:16:21;19.20;27.10
49184;DHT22;35021;49.214;12.270;2022-12-17T06:19:08;19.20;27.20
49184;DHT22;35021;49.214;12.270;2022-12-17T06:21:54;19.20;27.10
49184;DHT22;35021;49.214;12.270;2022-12-17T06:24:39;19.20;27.20
49184;DHT22;35021;49.214;12.270;2022-12-17T06:27:25;19.10;27.10
49184;DHT22;35021;49.214;12.270;2022-12-17T06:30:10;19.10;27.20
49184;DHT22;35021;49.214;12.270;2022-12-17T06:33:05;19.10;27.10
49184;DHT22;35021;49.214;12.270;2022-12-17T06:35:52;19.10;27.10
49184;DHT22;35021;49.214;12.270;2022-12-17T06:38:45;19.10;27.10
49184;DHT22;35021;49.214;12.270;2022-12-17T06:41:30;19.10;27.10
49184;DHT22;35021;49.214;12.270;2022-12-17T06:44:16;19.10;27.10
49184;DHT22;35021;49.214;12.270;2022-12-17T06:47:01;19.10;27.10
49184;DHT22;35021;49.214;12.270;2022-12-17T06:49:47;19.10;27.00
49184;DHT22;35021;49.214;12.270;2022-12-17T06:52:32;19.10;26.90
49184;DHT22;35021;49.214;12.270;2022-12-17T06:55:17;19.10;26.80
49184;DHT22;35021;49.214;12.270;2022-12-17T06:58:02;19.10;26.70
49184;DHT22;35021;49.214;12.270;2022-12-17T07:00:51;19.10;26.70
49184;DHT22;35021;49.214;12.270;2022-12-17T07:03:36;19.00;26.60
49184;DHT22;35021;49.214;12.270;2022-12-17T07:06:22;19.00;26.70
49184;DHT22;35021;49.214;12.270;2022-12-17T07:09:07;18.90;26.70
49184;DHT22;35021;49.214;12.270;2022-12-17T07:11:52;18.90;26.70
49184;DHT22;35021;49.214;12.270;2022-12-17T07:14:38;18.80;26.60
49184;DHT22;35021;49.214;12.270;2022-12-17T07:17:23;18.80;26.50
49184;DHT22;35021;49.214;12.270;2022-12-17T07:20:09;18.80;26.40
49184;DHT22;35021;49.214;12.270;2022-12-17T07:22:55;18.80;26.30
49184;DHT22;35021;49.214;12.270;2022-12-17T07:25:41;18.80;26.20
49184;DHT22;35021;49.214;12.270;2022-12-17T07:28:26;18.80;26.20
49184;DHT22;35021;49.214;12.270;2022-12-17T07:31:11;18.80;26.10
49184;DHT22;35021;49.214;12.270;2022-12-17T07:33:57;18.80;26.00
49184;DHT22;35021;49.214;12.270;2022-12-17T07:36:42;18.80;26.00
49184;DHT22;35021;49.214;12.270;2022-12-17T07:39:27;18.80;26.00
49184;DHT22;35021;49.214;12.270;2022-12-17T07:42:15;18.80;26.00
49184;DHT22;35021;49.214;12.270;2022-12-17T07:45:01;18.80;25.90
49184;DHT22;35021;49.214;12.270;2022-12-17T07:47:53;18.70;25.70
49184;DHT22;35021;49.214;12.270;2022-12-17T07:50:49;18.70;25.70
49184;DHT22;35021;49.214;12.270;2022-12-17T07:53:37;18.60;25.70
49184;DHT22;35021;49.214;12.270;2022-12-17T07:56:22;18.60;25.70
49184;DHT22;35021;49.214;12.270;2022-12-17T07:59:08;18.60;25.70
49184;DHT22;35021;49.214;12.270;2022-12-17T08:01:53;18.60;25.70
49184;DHT22;35021;49.214;12.270;2022-12-17T08:04:42;18.70;25.70
49184;DHT22;35021;49.214;12.270;2022-12-17T08:07:30;18.70;25.70
49184;DHT22;35021;49.214;12.270;2022-12-17T08:10:17;18.70;25.80
49184;DHT22;35021;49.214;12.270;2022-12-17T08:13:04;18.80;25.80
49184;DHT22;35021;49.214;12.270;2022-12-17T08:15:51;18.80;25.80
49184;DHT22;35021;49.214;12.270;2022-12-17T08:18:37;18.80;25.80
49184;DHT22;35021;49.214;12.270;2022-12-17T08:21:22;18.80;25.90
49184;DHT22;35021;49.214;12.270;2022-12-17T08:24:08;18.70;25.80
49184;DHT22;35021;49.214;12.270;2022-12-17T08:26:53;18.70;25.90
49184;DHT22;35021;49.214;12.270;2022-12-17T08:29:38;18.60;26.50
49184;DHT22;35021;49.214;12.270;2022-12-17T08:32:24;18.60;26.10
49184;DHT22;35021;49.214;12.270;2022-12-17T08:35:09;18.50;26.20
49184;DHT22;35021;49.214;12.270;2022-12-17T08:38:00;18.50;26.10
49184;DHT22;35021;49.214;12.270;2022-12-17T08:40:45;18.50;26.20
49184;DHT22;35021;49.214;12.270;2022-12-17T08:43:51;18.50;26.10
49184;DHT22;35021;49.214;12.270;2022-12-17T08:46:36;18.50;26.20
49184;DHT22;35021;49.214;12.270;2022-12-17T08:49:22;18.60;26.20
49184;DHT22;35021;49.214;12.270;2022-12-17T08:52:16;18.60;26.20
49184;DHT22;35021;49.214;12.270;2022-12-17T08:55:02;18.60;26.10
49184;DHT22;35021;49.214;12.270;2022-12-17T08:57:57;18.60;26.20
49184;DHT22;35021;49.214;12.270;2022-12-17T09:00:43;18.60;26.20
49184;DHT22;35021;49.214;12.270;2022-12-17T09:03:29;18.60;26.30
49184;DHT22;35021;49.214;12.270;2022-12-17T09:06:14;18.60;26.30
49184;DHT22;35021;49.214;12.270;2022-12-17T09:09:05;18.50;26.20
49184;DHT22;35021;49.214;12.270;2022-12-17T09:11:50;18.50;26.20
49184;DHT22;35021;49.214;12.270;2022-12-17T09:14:37;18.50;26.20
49184;DHT22;35021;49.214;12.270;2022-12-17T09:17:23;18.40;26.10
49184;DHT22;35021;49.214;12.270;2022-12-17T09:20:09;18.40;26.10
49184;DHT22;35021;49.214;12.270;2022-12-17T09:22:55;18.40;26.20
49184;DHT22;35021;49.214;12.270;2022-12-17T09:25:40;18.50;26.20
49184;DHT22;35021;49.214;12.270;2022-12-17T09:28:26;18.50;26.20
49184;DHT22;35021;49.214;12.270;2022-12-17T09:31:11;18.50;26.30
49184;DHT22;35021;49.214;12.270;2022-12-17T09:34:03;18.50;26.30
49184;DHT22;35021;49.214;12.270;2022-12-17T09:36:48;18.60;26.30
49184;DHT22;35021;49.214;12.270;2022-12-17T09:39:33;18.60;26.30
49184;DHT22;35021;49.214;12.270;2022-12-17T09:42:39;18.60;26.40
49184;DHT22;35021;49.214;12.270;2022-12-17T09:48:47;18.60;26.40
49184;DHT22;35021;49.214;12.270;2022-12-17T09:51:37;18.70;26.50
49184;DHT22;35021;49.214;12.270;2022-12-17T09:54:59;18.70;26.50
49184;DHT22;35021;49.214;12.270;2022-12-17T09:57:48;18.80;26.50
49184;DHT22;35021;49.214;12.270;2022-12-17T10:00:34;18.80;26.50
49184;DHT22;35021;49.214;12.270;2022-12-17T10:03:26;18.80;26.50
49184;DHT22;35021;49.214;12.270;2022-12-17T10:06:20;18.90;26.50
49184;DHT22;35021;49.214;12.270;2022-12-17T10:09:16;18.90;26.50
49184;DHT22;35021;49.214;12.270;2022-12-17T10:12:21;18.90;26.40
49184;DHT22;35021;49.214;12.270;2022-12-17T10:15:13;19.00;26.40
49184;DHT22;35021;49.214;12.270;2022-12-17T10:18:05;19.00;26.30
49184;DHT22;35021;49.214;12.270;2022-12-17T10:21:02;19.10;26.90
49184;DHT22;35021;49.214;12.270;2022-12-17T10:23:50;19.10;26.40
49184;DHT22;35021;49.214;12.270;2022-12-17T10:26:47;19.10;26.30
49184;DHT22;35021;49.214;12.270;2022-12-17T10:29:33;19.20;26.30
49184;DHT22;35021;49.214;12.270;2022-12-17T10:32:21;19.20;26.30
49184;DHT22;35021;49.214;12.270;2022-12-17T10:35:26;19.20;26.30
49184;DHT22;35021;49.214;12.270;2022-12-17T10:38:28;19.30;26.30
49184;DHT22;35021;49.214;12.270;2022-12-17T10:44:22;19.30;26.20
49184;DHT22;35021;49.214;12.270;2022-12-17T10:47:13;19.30;26.10
49184;DHT22;35021;49.214;12.270;2022-12-17T10:50:00;19.30;26.10
49184;DHT22;35021;49.214;12.270;2022-12-17T10:52:49;19.40;26.60
49184;DHT22;35021;49.214;12.270;2022-12-17T10:55:35;19.40;26.00
49184;DHT22;35021;49.214;12.270;2022-12-17T10:58:28;19.50;26.00
49184;DHT22;35021;49.214;12.270;2022-12-17T11:01:21;19.50;26.00
49184;DHT22;35021;49.214;12.270;2022-12-17T11:04:27;19.60;26.00
49184;DHT22;35021;49.214;12.270;2022-12-17T11:07:23;19.60;26.00
49184;DHT22;35021;49.214;12.270;2022-12-17T11:10:19;19.60;26.10
49184;DHT22;35021;49.214;12.270;2022-12-17T11:13:13;19.50;26.10
49184;DHT22;35021;49.214;12.270;2022-12-17T11:16:19;19.50;26.10
49184;DHT22;35021;49.214;12.270;2022-12-17T11:19:37;19.50;26.10
49184;DHT22;35021;49.214;12.270;2022-12-17T11:22:37;19.50;26.10
49184;DHT22;35021;49.214;12.270;2022-12-17T11:28:20;19.60;26.10
49184;DHT22;35021;49.214;12.270;2022-12-17T11:43:11;19.70;26.00
49184;DHT22;35021;49.214;12.270;2022-12-17T11:46:17;19.70;26.00
49184;DHT22;35021;49.214;12.270;2022-12-17T11:49:31;19.80;26.00
49184;DHT22;35021;49.214;12.270;2022-12-17T11:55:51;19.80;26.00
49184;DHT22;35021;49.214;12.270;2022-12-17T11:58:53;19.80;26.00
49184;DHT22;35021;49.214;12.270;2022-12-17T12:07:41;19.90;26.00
49184;DHT22;35021;49.214;12.270;2022-12-17T12:10:40;19.90;25.90
49184;DHT22;35021;49.214;12.270;2022-12-17T12:23:33;19.80;26.00
49184;DHT22;35021;49.214;12.270;2022-12-17T12:26:32;19.80;26.30
49184;DHT22;35021;49.214;12.270;2022-12-17T12:29:35;19.70;25.90
49184;DHT22;35021;49.214;12.270;2022-12-17T12:35:15;19.60;26.10
49184;DHT22;35021;49.214;12.270;2022-12-17T12:38:02;19.60;26.10
49184;DHT22;35021;49.214;12.270;2022-12-17T12:47:42;19.50;26.30
49184;DHT22;35021;49.214;12.270;2022-12-17T12:50:44;19.50;26.40
49184;DHT22;35021;49.214;12.270;2022-12-17T12:53:32;19.40;26.40
49184;DHT22;35021;49.214;12.270;2022-12-17T12:56:33;19.40;26.40
49184;DHT22;35021;49.214;12.270;2022-12-17T12:59:27;19.40;26.40
49184;DHT22;35021;49.214;12.270;2022-12-17T13:10:45;19.60;26.40
49184;DHT22;35021;49.214;12.270;2022-12-17T13:13:28;19.60;26.30
49184;DHT22;35021;49.214;12.270;2022-12-17T13:16:02;19.60;26.30
49184;DHT22;35021;49.214;12.270;2022-12-17T13:18:35;19.60;26.30
49184;DHT22;35021;49.214;12.270;2022-12-17T13:23:42;19.70;26.30
49184;DHT22;35021;49.214;12.270;2022-12-17T13:26:18;19.70;26.20
49184;DHT22;35021;49.214;12.270;2022-12-17T13:28:57;19.80;26.30
49184;DHT22;35021;49.214;12.270;2022-12-17T13:31:27;19.80;26.30
49184;DHT22;35021;49.214;12.270;2022-12-17T13:34:05;19.80;26.30
49184;DHT22;35021;49.214;12.270;2022-12-17T13:37:05;19.80;26.30
49184;DHT22;35021;49.214;12.270;2022-12-17T13:42:37;19.80;26.30
49184;DHT22;35021;49.214;12.270;2022-12-17T13:45:04;19.80;26.20
49184;DHT22;35021;49.214;12.270;2022-12-17T13:47:34;19.80;26.20
49184;DHT22;35021;49.214;12.270;2022-12-17T13:50:13;19.80;26.10
49184;DHT22;35021;49.214;12.270;2022-12-17T13:53:11;19.80;26.10
49184;DHT22;35021;49.214;12.270;2022-12-17T13:55:38;19.70;26.00
49184;DHT22;35021;49.214;12.270;2022-12-17T13:58:26;19.70;26.10
49184;DHT22;35021;49.214;12.270;2022-12-17T14:01:12;19.70;26.10
49184;DHT22;35021;49.214;12.270;2022-12-17T14:03:47;19.70;26.10
49184;DHT22;35021;49.214;12.270;2022-12-17T14:06:35;19.60;26.10
49184;DHT22;35021;49.214;12.270;2022-12-17T14:09:03;19.60;26.20
49184;DHT22;35021;49.214;12.270;2022-12-17T14:11:31;19.60;26.30
49184;DHT22;35021;49.214;12.270;2022-12-17T14:14:29;19.60;26.30
49184;DHT22;35021;49.214;12.270;2022-12-17T14:16:57;19.60;26.30
49184;DHT22;35021;49.214;12.270;2022-12-17T14:19:25;19.60;26.20
49184;DHT22;35021;49.214;12.270;2022-12-17T14:21:53;19.60;26.10
49184;DHT22;35021;49.214;12.270;2022-12-17T14:24:23;19.60;26.10
49184;DHT22;35021;49.214;12.270;2022-12-17T14:26:55;19.70;26.00
49184;DHT22;35021;49.214;12.270;2022-12-17T14:29:24;19.70;26.00
49184;DHT22;35021;49.214;12.270;2022-12-17T14:31:56;19.80;26.30
49184;DHT22;35021;49.214;12.270;2022-12-17T14:34:23;19.80;25.90
49184;DHT22;35021;49.214;12.270;2022-12-17T14:36:55;19.80;25.90
49184;DHT22;35021;49.214;12.270;2022-12-17T14:39:28;19.90;25.90
49184;DHT22;35021;49.214;12.270;2022-12-17T14:41:58;19.90;25.90
49184;DHT22;35021;49.214;12.270;2022-12-17T14:44:58;19.90;25.90
49184;DHT22;35021;49.214;12.270;2022-12-17T14:47:29;20.00;26.00
49184;DHT22;35021;49.214;12.270;2022-12-17T14:52:36;20.00;25.80
49184;DHT22;35021;49.214;12.270;2022-12-17T14:58:25;20.00;25.80
49184;DHT22;35021;49.214;12.270;2022-12-17T15:01:06;20.00;25.70
49184;DHT22;35021;49.214;12.270;2022-12-17T15:03:39;20.00;25.70
49184;DHT22;35021;49.214;12.270;2022-12-17T15:06:08;19.90;25.60
49184;DHT22;35021;49.214;12.270;2022-12-17T15:08:39;19.90;25.50
49184;DHT22;35021;49.214;12.270;2022-12-17T15:11:10;19.90;25.50
49184;DHT22;35021;49.214;12.270;2022-12-17T15:13:38;19.90;25.40
49184;DHT22;35021;49.214;12.270;2022-12-17T15:16:05;19.90;25.30
49184;DHT22;35021;49.214;12.270;2022-12-17T15:18:32;19.90;25.30
49184;DHT22;35021;49.214;12.270;2022-12-17T15:21:01;19.80;25.20
49184;DHT22;35021;49.214;12.270;2022-12-17T15:23:29;19.80;25.10
49184;DHT22;35021;49.214;12.270;2022-12-17T15:25:56;19.80;25.10
49184;DHT22;35021;49.214;12.270;2022-12-17T15:28:24;19.80;25.20
49184;DHT22;35021;49.214;12.270;2022-12-17T15:30:51;19.70;25.10
49184;DHT22;35021;49.214;12.270;2022-12-17T15:33:18;19.70;25.20
49184;DHT22;35021;49.214;12.270;2022-12-17T15:35:45;19.70;25.80
49184;DHT22;35021;49.214;12.270;2022-12-17T15:38:12;19.60;25.20
49184;DHT22;35021;49.214;12.270;2022-12-17T15:40:39;19.60;25.20
49184;DHT22;35021;49.214;12.270;2022-12-17T15:43:11;19.50;25.10
49184;DHT22;35021;49.214;12.270;2022-12-17T15:45:47;19.50;25.10
49184;DHT22;35021;49.214;12.270;2022-12-17T15:48:20;19.60;25.20
49184;DHT22;35021;49.214;12.270;2022-12-17T15:50:47;19.60;25.10
49184;DHT22;35021;49.214;12.270;2022-12-17T15:53:14;19.60;25.10
49184;DHT22;35021;49.214;12.270;2022-12-17T15:55:42;19.60;25.00
49184;DHT22;35021;49.214;12.270;2022-12-17T15:58:11;19.60;25.00
49184;DHT22;35021;49.214;12.270;2022-12-17T16:00:38;19.60;25.00
49184;DHT22;35021;49.214;12.270;2022-12-17T16:03:04;19.60;24.90
49184;DHT22;35021;49.214;12.270;2022-12-17T16:05:31;19.60;24.90
49184;DHT22;35021;49.214;12.270;2022-12-17T16:07:58;19.60;24.90
49184;DHT22;35021;49.214;12.270;2022-12-17T16:10:28;19.60;25.00
49184;DHT22;35021;49.214;12.270;2022-12-17T16:12:55;19.60;24.90
49184;DHT22;35021;49.214;12.270;2022-12-17T16:15:22;19.60;25.00
49184;DHT22;35021;49.214;12.270;2022-12-17T16:17:49;19.60;24.80
49184;DHT22;35021;49.214;12.270;2022-12-17T16:20:16;19.60;24.70
49184;DHT22;35021;49.214;12.270;2022-12-17T16:22:42;19.60;24.60
49184;DHT22;35021;49.214;12.270;2022-12-17T16:25:10;19.60;24.70
49184;DHT22;35021;49.214;12.270;2022-12-17T16:27:37;19.60;24.70
49184;DHT22;35021;49.214;12.270;2022-12-17T16:30:04;19.60;24.70
49184;DHT22;35021;49.214;12.270;2022-12-17T16:32:31;19.60;24.60
49184;DHT22;35021;49.214;12.270;2022-12-17T16:35:03;19.70;24.60
49184;DHT22;35021;49.214;12.270;2022-12-17T16:37:30;19.70;24.60
49184;DHT22;35021;49.214;12.270;2022-12-17T16:39:57;19.70;24.50
49184;DHT22;35021;49.214;12.270;2022-12-17T16:42:26;19.70;24.50
49184;DHT22;35021;49.214;12.270;2022-12-17T16:44:53;19.70;24.40
49184;DHT22;35021;49.214;12.270;2022-12-17T16:47:20;19.70;24.30
49184;DHT22;35021;49.214;12.270;2022-12-17T16:49:49;19.70;24.20
49184;DHT22;35021;49.214;12.270;2022-12-17T16:52:16;19.70;24.20
49184;DHT22;35021;49.214;12.270;2022-12-17T16:54:43;19.70;24.10
49184;DHT22;35021;49.214;12.270;2022-12-17T16:57:10;19.70;24.00
49184;DHT22;35021;49.214;12.270;2022-12-17T16:59:36;19.70;24.00
49184;DHT22;35021;49.214;12.270;2022-12-17T17:02:03;19.70;24.00
49184;DHT22;35021;49.214;12.270;2022-12-17T17:04:31;19.70;23.90
49184;DHT22;35021;49.214;12.270;2022-12-17T17:06:58;19.80;24.00
49184;DHT22;35021;49.214;12.270;2022-12-17T17:09:25;19.80;24.00
49184;DHT22;35021;49.214;12.270;2022-12-17T17:11:55;19.80;23.90
49184;DHT22;35021;49.214;12.270;2022-12-17T17:14:23;19.80;23.90
49184;DHT22;35021;49.214;12.270;2022-12-17T17:16:51;19.80;23.90
49184;DHT22;35021;49.214;12.270;2022-12-17T17:19:18;19.80;24.00
49184;DHT22;35021;49.214;12.270;2022-12-17T17:21:50;19.90;24.10
49184;DHT22;35021;49.214;12.270;2022-12-17T17:24:19;19.90;24.10
49184;DHT22;35021;49.214;12.270;2022-12-17T17:26:52;19.90;23.90
49184;DHT22;35021;49.214;12.270;2022-12-17T17:29:20;19.90;23.80
49184;DHT22;35021;49.214;12.270;2022-12-17T17:31:47;19.80;23.80
49184;DHT22;35021;49.214;12.270;2022-12-17T17:34:37;19.80;23.70
49184;DHT22;35021;49.214;12.270;2022-12-17T17:37:04;19.80;23.90
49184;DHT22;35021;49.214;12.270;2022-12-17T17:39:30;19.80;23.90
49184;DHT22;35021;49.214;12.270;2022-12-17T17:42:00;19.70;23.90
49184;DHT22;35021;49.214;12.270;2022-12-17T17:44:26;19.70;23.80
49184;DHT22;35021;49.214;12.270;2022-12-17T17:46:53;19.70;23.70
49184;DHT22;35021;49.214;12.270;2022-12-17T17:49:20;19.70;23.70
49184;DHT22;35021;49.214;12.270;2022-12-17T17:51:48;19.70;23.70
49184;DHT22;35021;49.214;12.270;2022-12-17T17:54:35;19.70;23.60
49184;DHT22;35021;49.214;12.270;2022-12-17T17:57:01;19.70;23.50
49184;DHT22;35021;49.214;12.270;2022-12-17T17:59:28;19.70;23.50
49184;DHT22;35021;49.214;12.270;2022-12-17T18:02:00;19.70;23.50
49184;DHT22;35021;49.214;12.270;2022-12-17T18:04:27;19.70;23.40
49184;DHT22;35021;49.214;12.270;2022-12-17T18:06:55;19.60;23.30
49184;DHT22;35021;49.214;12.270;2022-12-17T18:09:42;19.60;23.20